Time;durP1;ratioP1;P1;durP2;ratioP2;P2;SDS_P1;SDS_P2;PMS_P1;PMS_P2;Temp;Humidity;BMP_temperature;BMP_pressure;BME280_temperature;BME280_humidity;BME280_pressure;Samples;Min_cycle;Max_cycle;Signal;HPM_P1;HPM_P2
2021/04/07 00:00:30;;;;;;;10.43;2.95;;;;;;;-143.98;100.00;68091.63;5103984;27;20059;-81
2021/04/07 00:02:57;;;;;;;12.57;3.22;;;;;;;-143.98;100.00;68091.63;5103109;27;20296;-80
2021/04/07 00:05:44;;;;;;;15.80;3.28;;;;;;;-143.98;100.00;68091.63;5119486;27;20062;-80
2021/04/07 00:08:15;;;;;;;10.45;2.88;;;;;;;-143.98;100.00;68091.63;5103019;27;20047;-80
2021/04/07 00:10:45;;;;;;;14.77;3.03;;;;;;;-143.98;100.00;68091.63;5102235;27;20140;-80
2021/04/07 00:13:13;;;;;;;9.40;3.17;;;;;;;-143.98;100.00;68091.63;5118877;27;20407;-80
2021/04/07 00:15:39;;;;;;;13.98;2.97;;;;;;;-143.98;100.00;68091.63;5103112;27;20058;-80
2021/04/07 00:18:06;;;;;;;17.15;3.08;;;;;;;-143.98;100.00;68091.63;5105961;27;20054;-80
2021/04/07 00:20:35;;;;;;;18.45;3.55;;;;;;;-143.98;100.00;68091.63;5132679;27;20152;-80
2021/04/07 00:23:07;;;;;;;15.73;3.00;;;;;;;-143.98;100.00;68091.63;5120728;27;20051;-81
2021/04/07 00:25:36;;;;;;;15.70;3.45;;;;;;;-143.98;100.00;68091.63;5104959;27;20063;-81
2021/04/07 00:28:06;;;;;;;12.55;2.67;;;;;;;-143.98;100.00;68091.63;5103222;27;20362;-81
2021/04/07 00:30:34;;;;;;;17.73;2.63;;;;;;;-143.98;100.00;68091.63;5115046;27;20101;-80
2021/04/07 00:33:00;;;;;;;13.80;3.38;;;;;;;-143.98;100.00;68091.63;5132003;27;20055;-80
2021/04/07 00:35:28;;;;;;;14.23;2.47;;;;;;;-143.98;100.00;68091.63;5144959;27;20066;-81
2021/04/07 00:37:55;;;;;;;12.27;2.20;;;;;;;-143.98;100.00;68091.63;5123974;27;20101;-80
2021/04/07 00:40:24;;;;;;;13.23;2.78;;;;;;;-143.98;100.00;68091.63;5104754;27;20354;-79
2021/04/07 00:42:52;;;;;;;14.52;3.03;;;;;;;-143.98;100.00;68091.63;5125958;27;20315;-79
2021/04/07 00:45:19;;;;;;;12.25;2.30;;;;;;;-143.98;100.00;68091.63;5112513;27;20051;-79
2021/04/07 00:47:50;;;;;;;14.45;2.85;;;;;;;-143.98;100.00;68091.63;5122927;27;20458;-79
2021/04/07 00:50:21;;;;;;;15.52;3.22;;;;;;;-143.98;100.00;68091.63;5122519;27;20081;-80
2021/04/07 00:52:47;;;;;;;15.32;2.58;;;;;;;-143.98;100.00;68091.63;5103945;27;20412;-81
2021/04/07 00:55:16;;;;;;;12.73;2.28;;;;;;;-143.98;100.00;68091.63;5103321;27;20055;-80
2021/04/07 00:57:44;;;;;;;21.00;2.85;;;;;;;-143.98;100.00;68091.63;5103504;27;20047;-80
2021/04/07 01:00:11;;;;;;;14.27;3.20;;;;;;;-143.98;100.00;68091.63;5130582;27;20315;-80
2021/04/07 01:02:39;;;;;;;14.57;3.30;;;;;;;-143.98;100.00;68091.63;5131272;27;20055;-80
2021/04/07 01:05:07;;;;;;;16.58;2.90;;;;;;;-143.98;100.00;68091.63;5112909;27;20095;-81
2021/04/07 01:07:34;;;;;;;14.48;3.35;;;;;;;-143.98;100.00;68091.63;5126884;27;20086;-81
2021/04/07 01:10:00;;;;;;;12.32;2.83;;;;;;;-143.98;100.00;68091.63;5125959;27;20542;-81
2021/04/07 01:12:27;;;;;;;15.55;3.00;;;;;;;-143.98;100.00;68091.63;5127592;27;20069;-81
2021/04/07 01:14:53;;;;;;;17.10;3.40;;;;;;;-143.98;100.00;68091.63;5127528;27;20065;-81
2021/04/07 01:17:24;;;;;;;20.38;3.63;;;;;;;-143.98;100.00;68091.63;5125001;27;20055;-81
2021/04/07 01:19:50;;;;;;;17.38;3.67;;;;;;;-143.98;100.00;68091.63;5145144;27;20081;-81
2021/04/07 01:22:21;;;;;;;20.80;3.58;;;;;;;-143.98;100.00;68091.63;5126279;27;20057;-81
2021/04/07 01:24:48;;;;;;;16.23;3.58;;;;;;;-143.98;100.00;68091.63;5106245;27;20055;-81
2021/04/07 01:27:16;;;;;;;18.73;3.45;;;;;;;-143.98;100.00;68091.63;5124131;27;20050;-81
2021/04/07 01:29:43;;;;;;;16.75;2.60;;;;;;;-143.98;100.00;68091.63;5122922;27;20043;-81
2021/04/07 01:32:09;;;;;;;16.20;3.33;;;;;;;-143.98;100.00;68091.63;5121961;28;20055;-81
2021/04/07 01:34:42;;;;;;;27.92;3.08;;;;;;;-143.98;100.00;68091.63;5122051;27;20055;-81
2021/04/07 01:37:09;;;;;;;17.67;2.92;;;;;;;-143.98;100.00;68091.63;5125082;27;20051;-81
2021/04/07 01:39:35;;;;;;;14.50;2.80;;;;;;;-143.98;100.00;68091.63;5126875;27;20051;-80
2021/04/07 01:42:08;;;;;;;13.18;2.92;;;;;;;-143.98;100.00;68091.63;5127868;27;20090;-80
2021/04/07 01:44:39;;;;;;;19.73;2.92;;;;;;;-143.98;100.00;68091.63;5127135;27;20051;-81
2021/04/07 01:47:09;;;;;;;10.48;2.47;;;;;;;-143.98;100.00;68091.63;5110077;27;20061;-81
2021/04/07 01:49:35;;;;;;;15.65;3.13;;;;;;;-143.98;100.00;68091.63;5124712;27;20063;-81
2021/04/07 01:52:01;;;;;;;12.13;2.35;;;;;;;-143.98;100.00;68091.63;5138707;27;20110;-81
2021/04/07 01:54:37;;;;;;;9.30;2.15;;;;;;;-143.98;100.00;68091.63;5098083;28;20056;-81
2021/04/07 01:57:04;;;;;;;21.33;2.80;;;;;;;-143.98;100.00;68091.63;5125392;27;20062;-81
2021/04/07 01:59:31;;;;;;;17.55;2.28;;;;;;;-143.98;100.00;68091.63;5123214;28;20055;-81
2021/04/07 02:01:58;;;;;;;18.90;2.88;;;;;;;-143.98;100.00;68091.63;5123122;27;20062;-81
2021/04/07 02:04:25;;;;;;;12.10;2.50;;;;;;;-143.98;100.00;68091.63;5141027;27;20115;-79
2021/04/07 02:06:57;;;;;;;16.67;2.55;;;;;;;-143.98;100.00;68091.63;5127745;28;20155;-79
2021/04/07 02:09:24;;;;;;;16.60;2.40;;;;;;;-143.98;100.00;68091.63;5125379;28;20061;-80
2021/04/07 02:11:52;;;;;;;18.17;2.75;;;;;;;-143.98;100.00;68091.63;5129527;28;20043;-81
2021/04/07 02:14:24;;;;;;;13.65;2.42;;;;;;;-143.98;100.00;68091.63;5129931;28;20096;-79
2021/04/07 02:16:58;;;;;;;28.05;2.92;;;;;;;-143.98;100.00;68091.63;5145682;28;20083;-80
2021/04/07 02:19:26;;;;;;;10.85;2.15;;;;;;;-143.98;100.00;68091.63;5146285;28;20047;-80
2021/04/07 02:22:04;;;;;;;20.55;2.45;;;;;;;-143.98;100.00;68091.63;5122915;28;20067;-80
2021/04/07 02:24:34;;;;;;;17.75;2.40;;;;;;;-143.98;100.00;68091.63;5138188;28;20128;-80
2021/04/07 02:27:10;;;;;;;13.77;2.67;;;;;;;-143.98;100.00;68091.63;5120359;28;20105;-80
2021/04/07 02:29:37;;;;;;;21.23;2.33;;;;;;;-143.98;100.00;68091.63;5122954;28;20473;-81
2021/04/07 02:32:04;;;;;;;11.88;2.35;;;;;;;-143.98;100.00;68091.63;5140067;28;20427;-80
2021/04/07 02:34:31;;;;;;;16.27;2.83;;;;;;;-143.98;100.00;68091.63;5123057;28;20063;-80
2021/04/07 02:37:07;;;;;;;12.88;2.67;;;;;;;-143.98;100.00;68091.63;5122609;28;20051;-80
2021/04/07 02:39:33;;;;;;;24.00;3.65;;;;;;;-143.98;100.00;68091.63;5139333;27;20243;-81
2021/04/07 02:41:59;;;;;;;18.42;2.85;;;;;;;-143.98;100.00;68091.63;5140820;27;20058;-80
2021/04/07 02:44:25;;;;;;;17.42;2.70;;;;;;;-143.98;100.00;68091.63;5140383;27;20059;-80
2021/04/07 02:46:52;;;;;;;9.13;2.83;;;;;;;-143.98;100.00;68091.63;5123475;27;20051;-79
2021/04/07 02:49:18;;;;;;;8.88;2.58;;;;;;;-143.98;100.00;68091.63;5140099;27;20073;-79
2021/04/07 02:51:50;;;;;;;13.65;2.30;;;;;;;-143.98;100.00;68091.63;5139772;27;20186;-80
2021/04/07 02:54:27;;;;;;;13.75;2.58;;;;;;;-143.98;100.00;68091.63;5123239;27;20141;-80
2021/04/07 02:56:54;;;;;;;16.37;2.83;;;;;;;-143.98;100.00;68091.63;5140780;27;20460;-80
2021/04/07 02:59:20;;;;;;;18.52;3.22;;;;;;;-143.98;100.00;68091.63;5139987;27;20363;-80
2021/04/07 03:01:47;;;;;;;15.93;2.92;;;;;;;-143.98;100.00;68091.63;5140849;27;20246;-80
2021/04/07 03:04:19;;;;;;;18.20;2.60;;;;;;;-143.98;100.00;68091.63;5132487;27;20055;-81
2021/04/07 03:06:45;;;;;;;17.42;2.88;;;;;;;-143.98;100.00;68091.63;5142094;27;20047;-80
2021/04/07 03:09:13;;;;;;;16.42;2.88;;;;;;;-143.98;100.00;68091.63;5124975;27;20065;-80
2021/04/07 03:11:41;;;;;;;12.68;3.00;;;;;;;-143.98;100.00;68091.63;5147179;27;20066;-81
2021/04/07 03:14:07;;;;;;;21.75;2.78;;;;;;;-143.98;100.00;68091.63;5143717;27;20495;-80
2021/04/07 03:16:34;;;;;;;13.43;2.60;;;;;;;-143.98;100.00;68091.63;5155063;27;20039;-81
2021/04/07 03:19:03;;;;;;;19.75;2.70;;;;;;;-143.98;100.00;68091.63;5131397;27;20112;-81
2021/04/07 03:21:29;;;;;;;20.45;3.40;;;;;;;-143.98;100.00;68091.63;5121873;27;20051;-81
2021/04/07 03:23:55;;;;;;;13.35;2.83;;;;;;;-143.98;100.00;68091.63;5138182;27;20104;-80
2021/04/07 03:26:25;;;;;;;19.08;3.22;;;;;;;-143.98;100.00;68091.63;5122638;27;20055;-80
2021/04/07 03:28:55;;;;;;;16.40;2.85;;;;;;;-143.98;100.00;68091.63;5141738;27;20313;-81
2021/04/07 03:31:21;;;;;;;13.52;2.22;;;;;;;-143.98;100.00;68091.63;5139341;27;20131;-80
2021/04/07 03:33:51;;;;;;;16.15;2.58;;;;;;;-143.98;100.00;68091.63;5121455;27;20051;-80
2021/04/07 03:36:22;;;;;;;14.10;3.35;;;;;;;-143.98;100.00;68091.63;5122521;27;20063;-81
2021/04/07 03:38:48;;;;;;;19.83;2.80;;;;;;;-143.98;100.00;68091.63;5140981;27;20427;-80
2021/04/07 03:41:14;;;;;;;13.70;3.03;;;;;;;-143.98;100.00;68091.63;5140221;27;20113;-80
2021/04/07 03:43:40;;;;;;;15.80;2.95;;;;;;;-143.98;100.00;68091.63;5121334;27;20083;-80
2021/04/07 03:46:07;;;;;;;18.55;2.60;;;;;;;-143.98;100.00;68091.63;5122174;27;20062;-80
2021/04/07 03:48:33;;;;;;;20.50;2.53;;;;;;;-143.98;100.00;68091.63;5136550;27;20505;-81
2021/04/07 03:51:04;;;;;;;14.80;2.80;;;;;;;-143.98;100.00;68091.63;5117991;27;20079;-79
2021/04/07 03:53:32;;;;;;;19.70;2.72;;;;;;;-143.98;100.00;68091.63;5112551;28;20156;-81
2021/04/07 03:56:01;;;;;;;16.20;3.35;;;;;;;-143.98;100.00;68091.63;5098365;28;20051;-81
2021/04/07 03:58:27;;;;;;;12.15;2.53;;;;;;;-143.98;100.00;68091.63;5114828;28;20162;-81
2021/04/07 04:00:57;;;;;;;21.25;3.58;;;;;;;-143.98;100.00;68091.63;5097418;28;20105;-81
2021/04/07 04:03:24;;;;;;;15.20;3.28;;;;;;;-143.98;100.00;68091.63;5115791;28;20056;-81
2021/04/07 04:05:50;;;;;;;12.93;2.50;;;;;;;-143.98;100.00;68091.63;5100879;28;20059;-81
2021/04/07 04:08:19;;;;;;;18.08;3.70;;;;;;;-143.98;100.00;68091.63;5111454;28;20051;-80
2021/04/07 04:10:46;;;;;;;12.82;2.60;;;;;;;-143.98;100.00;68091.63;5127903;28;20119;-80
2021/04/07 04:13:12;;;;;;;18.85;2.97;;;;;;;-143.98;100.00;68091.63;5101607;28;20152;-80
2021/04/07 04:15:38;;;;;;;27.33;3.55;;;;;;;-143.98;100.00;68091.63;5101228;28;20066;-81
2021/04/07 04:18:10;;;;;;;31.55;4.03;;;;;;;-143.98;100.00;68091.63;5100836;28;20078;-82
2021/04/07 04:20:36;;;;;;;16.80;2.80;;;;;;;-143.98;100.00;68091.63;5124689;28;20051;-80
2021/04/07 04:23:06;;;;;;;16.30;2.72;;;;;;;-143.98;100.00;68091.63;5112149;28;20054;-79
2021/04/07 04:25:32;;;;;;;17.75;3.45;;;;;;;-143.98;100.00;68091.63;5118442;28;20077;-80
2021/04/07 04:27:59;;;;;;;10.82;2.53;;;;;;;-143.98;100.00;68091.63;5115817;28;20419;-80
2021/04/07 04:30:27;;;;;;;31.65;4.75;;;;;;;-143.98;100.00;68091.63;5114187;28;20063;-80
2021/04/07 04:33:08;;;;;;;13.68;3.30;;;;;;;-143.98;100.00;68091.63;5114839;28;20136;-80
2021/04/07 04:35:34;;;;;;;25.50;3.00;;;;;;;-143.98;100.00;68091.63;5097417;28;20060;-80
2021/04/07 04:38:01;;;;;;;15.10;3.15;;;;;;;-143.98;100.00;68091.63;5113171;28;20089;-81
2021/04/07 04:40:27;;;;;;;21.48;3.20;;;;;;;-143.98;100.00;68091.63;5114519;28;20493;-80
2021/04/07 04:43:01;;;;;;;13.52;2.92;;;;;;;-143.98;100.00;68091.63;5096923;28;20056;-80
2021/04/07 04:45:27;;;;;;;15.50;3.78;;;;;;;-143.98;100.00;68091.63;5114113;28;20138;-80
2021/04/07 04:47:59;;;;;;;18.63;4.53;;;;;;;-143.98;100.00;68091.63;5115079;28;20065;-81
2021/04/07 04:50:28;;;;;;;15.60;5.25;;;;;;;-143.98;100.00;68091.63;5116201;28;20056;-80
2021/04/07 04:52:55;;;;;;;22.10;5.40;;;;;;;-143.98;100.00;68091.63;5097008;28;20051;-80
2021/04/07 04:55:21;;;;;;;22.58;6.20;;;;;;;-143.98;100.00;68091.63;5097414;28;20054;-81
2021/04/07 04:57:47;;;;;;;19.67;6.10;;;;;;;-143.98;100.00;68091.63;5114061;28;20060;-81
2021/04/07 05:00:15;;;;;;;22.58;6.50;;;;;;;-143.98;100.00;68091.63;5114314;28;20456;-81
2021/04/07 05:02:47;;;;;;;28.00;7.20;;;;;;;-143.98;100.00;68091.63;5112213;28;20059;-81
2021/04/07 05:05:18;;;;;;;18.55;6.68;;;;;;;-143.98;100.00;68091.63;5112110;28;20300;-81
2021/04/07 05:07:45;;;;;;;23.10;6.88;;;;;;;-143.98;100.00;68091.63;5113500;28;20062;-81
2021/04/07 05:10:14;;;;;;;20.67;7.85;;;;;;;-143.98;100.00;68091.63;5096448;28;20052;-82
2021/04/07 05:12:40;;;;;;;18.98;6.20;;;;;;;-143.98;100.00;68091.63;5112968;28;20066;-81
2021/04/07 05:15:07;;;;;;;20.90;6.55;;;;;;;-143.98;100.00;68091.63;5098256;28;20060;-82
2021/04/07 05:17:35;;;;;;;23.48;5.70;;;;;;;-143.98;100.00;68091.63;5098063;28;20055;-82
2021/04/07 05:20:05;;;;;;;12.50;5.60;;;;;;;-143.98;100.00;68091.63;5102339;28;20445;-82
2021/04/07 05:22:31;;;;;;;27.48;7.10;;;;;;;-143.98;100.00;68091.63;5109835;28;20225;-82
2021/04/07 05:24:58;;;;;;;19.60;6.38;;;;;;;-143.98;100.00;68091.63;5128881;28;20055;-81
2021/04/07 05:27:24;;;;;;;17.98;6.03;;;;;;;-143.98;100.00;68091.63;5125398;28;20056;-84
2021/04/07 05:29:51;;;;;;;18.60;4.97;;;;;;;-143.98;100.00;68091.63;5107547;28;20070;-84
2021/04/07 05:32:20;;;;;;;27.95;6.30;;;;;;;-143.98;100.00;68091.63;5105490;28;20066;-83
2021/04/07 05:34:47;;;;;;;11.90;5.18;;;;;;;-143.98;100.00;68091.63;5121270;28;20067;-83
2021/04/07 05:37:16;;;;;;;16.45;5.53;;;;;;;-143.98;100.00;68091.63;5102539;28;20090;-84
2021/04/07 05:39:42;;;;;;;18.30;6.15;;;;;;;-143.98;100.00;68091.63;5114597;28;20044;-84
2021/04/07 05:42:11;;;;;;;16.40;4.63;;;;;;;-143.98;100.00;68091.63;5122171;28;20128;-84
2021/04/07 05:44:40;;;;;;;17.38;6.28;;;;;;;-143.98;100.00;68091.63;5128385;28;20055;-84
2021/04/07 05:47:11;;;;;;;15.18;6.97;;;;;;;-143.98;100.00;68091.63;5126830;28;20112;-86
2021/04/07 05:49:40;;;;;;;20.05;7.20;;;;;;;-143.98;100.00;68091.63;5132286;28;20035;-84
2021/04/07 05:52:06;;;;;;;24.65;6.53;;;;;;;-143.98;100.00;68091.63;5125584;28;20465;-83
2021/04/07 05:54:36;;;;;;;15.10;6.78;;;;;;;-143.98;100.00;68091.63;5114056;28;20291;-83
2021/04/07 05:57:12;;;;;;;13.75;6.45;;;;;;;-143.98;100.00;68091.63;5113889;28;20153;-84
2021/04/07 05:59:39;;;;;;;13.18;6.75;;;;;;;-143.98;100.00;68091.63;5119789;28;20063;-83
2021/04/07 06:02:05;;;;;;;20.23;6.60;;;;;;;-143.98;100.00;68091.63;5117076;28;20105;-84
2021/04/07 06:04:40;;;;;;;12.70;6.55;;;;;;;-143.98;100.00;68091.63;5096889;28;20055;-83
2021/04/07 06:07:10;;;;;;;15.02;6.32;;;;;;;-143.98;100.00;68091.63;5113586;28;20059;-83
2021/04/07 06:09:36;;;;;;;9.27;5.50;;;;;;;-143.98;100.00;68091.63;5122578;28;20216;-83
2021/04/07 06:12:03;;;;;;;14.90;5.30;;;;;;;-143.98;100.00;68091.63;5124806;28;20058;-84
2021/04/07 06:14:36;;;;;;;11.63;5.18;;;;;;;-143.98;100.00;68091.63;5113118;28;20283;-84
2021/04/07 06:17:05;;;;;;;12.27;5.00;;;;;;;-143.98;100.00;68091.63;5099930;28;20219;-84
2021/04/07 06:19:31;;;;;;;11.85;6.13;;;;;;;-143.98;100.00;68091.63;5112408;28;20363;-84
2021/04/07 06:21:57;;;;;;;8.50;4.57;;;;;;;-143.98;100.00;68091.63;5110949;28;20051;-84
2021/04/07 06:24:28;;;;;;;11.80;4.47;;;;;;;-143.98;100.00;68091.63;5111079;28;20051;-83
2021/04/07 06:26:55;;;;;;;12.57;4.82;;;;;;;-143.98;100.00;68091.63;5110838;28;20139;-84
2021/04/07 06:29:21;;;;;;;9.75;4.45;;;;;;;-143.98;100.00;68091.63;5094018;28;20051;-84
2021/04/07 06:31:47;;;;;;;9.40;4.15;;;;;;;-143.98;100.00;68091.63;5111465;28;20120;-84
2021/04/07 06:34:21;;;;;;;11.20;4.63;;;;;;;-143.98;100.00;68091.63;5113381;28;20190;-83
2021/04/07 06:36:51;;;;;;;7.68;4.47;;;;;;;-143.98;100.00;68091.63;5113283;28;20348;-83
2021/04/07 06:39:20;;;;;;;10.40;4.20;;;;;;;-143.98;100.00;68091.63;5116036;28;20058;-83
2021/04/07 06:41:46;;;;;;;9.93;5.32;;;;;;;-143.98;100.00;68091.63;5112150;28;20120;-82
2021/04/07 06:44:12;;;;;;;11.60;5.60;;;;;;;-143.98;100.00;68091.63;5094137;28;20136;-82
2021/04/07 06:46:41;;;;;;;11.55;5.78;;;;;;;-143.98;100.00;68091.63;5113592;28;20341;-81
2021/04/07 06:49:15;;;;;;;12.18;5.50;;;;;;;-143.98;100.00;68091.63;5110636;28;20094;-81
2021/04/07 06:51:42;;;;;;;11.43;4.80;;;;;;;-143.98;100.00;68091.63;5110363;28;20248;-82
2021/04/07 06:54:17;;;;;;;8.48;4.43;;;;;;;-143.98;100.00;68091.63;5113582;28;20047;-82
2021/04/07 06:56:44;;;;;;;12.03;5.20;;;;;;;-143.98;100.00;68091.63;5110688;28;20418;-83
2021/04/07 06:59:10;;;;;;;10.38;5.10;;;;;;;-143.98;100.00;68091.63;5113971;28;20043;-82
2021/04/07 07:01:36;;;;;;;14.02;5.40;;;;;;;-143.98;100.00;68091.63;5095416;28;20138;-82
2021/04/07 07:04:06;;;;;;;12.90;6.20;;;;;;;-143.98;100.00;68091.63;5096280;28;20174;-83
2021/04/07 07:06:33;;;;;;;7.63;5.43;;;;;;;-143.98;100.00;68091.63;5115106;28;20052;-82
2021/04/07 07:09:18;;;;;;;11.80;4.60;;;;;;;-143.98;100.00;68091.63;5111119;28;20081;-82
2021/04/07 07:11:48;;;;;;;12.38;5.72;;;;;;;-143.98;100.00;68091.63;5113534;28;20654;-82
2021/04/07 07:14:18;;;;;;;71.38;9.93;;;;;;;-143.98;100.00;68091.63;5110625;28;20146;-83
2021/04/07 07:16:49;;;;;;;17.13;6.32;;;;;;;-143.98;100.00;68091.63;5109766;28;20059;-82
2021/04/07 07:19:26;;;;;;;84.72;9.70;;;;;;;-143.98;100.00;68091.63;5110304;28;20327;-83
2021/04/07 07:22:01;;;;;;;8.00;5.38;;;;;;;-143.98;100.00;68091.63;5111140;28;20235;-82
2021/04/07 07:24:39;;;;;;;12.27;5.53;;;;;;;-143.98;100.00;68091.63;5091496;28;20071;-82
2021/04/07 07:27:08;;;;;;;35.20;7.45;;;;;;;-143.98;100.00;68091.63;5112781;27;20146;-83
2021/04/07 07:29:38;;;;;;;10.25;5.45;;;;;;;-143.98;100.00;68091.63;5093910;28;20111;-82
2021/04/07 07:32:07;;;;;;;7.80;5.32;;;;;;;-143.98;100.00;68091.63;5111059;28;20150;-82
2021/04/07 07:34:34;;;;;;;9.45;5.47;;;;;;;-143.98;100.00;68091.63;5092863;28;20071;-83
2021/04/07 07:37:02;;;;;;;7.30;4.78;;;;;;;-143.98;100.00;68091.63;5109374;28;20062;-81
2021/04/07 07:39:30;;;;;;;8.43;4.93;;;;;;;-143.98;100.00;68091.63;5094081;28;20058;-82
2021/04/07 07:42:01;;;;;;;6.82;4.70;;;;;;;-143.98;100.00;68091.63;5093746;28;20062;-83
2021/04/07 07:44:29;;;;;;;7.80;5.65;;;;;;;-143.98;100.00;68091.63;5110353;28;20059;-82
2021/04/07 07:47:24;;;;;;;13.23;5.70;;;;;;;-143.98;100.00;68091.63;5108459;28;20043;-82
2021/04/07 07:49:57;;;;;;;9.65;6.18;;;;;;;-143.98;100.00;68091.63;5124912;28;20075;-82
2021/04/07 07:52:43;;;;;;;7.80;5.03;;;;;;;-143.98;100.00;68091.63;5098186;28;20116;-82
2021/04/07 07:55:15;;;;;;;8.60;5.18;;;;;;;-143.98;100.00;68091.63;5111688;28;20102;-82
2021/04/07 07:57:56;;;;;;;9.25;4.72;;;;;;;-143.98;100.00;68091.63;5096288;28;20078;-81
2021/04/07 08:00:34;;;;;;;8.48;4.38;;;;;;;-143.98;100.00;68091.63;5125685;28;20161;-82
2021/04/07 08:03:14;;;;;;;8.18;4.57;;;;;;;-143.98;100.00;68091.63;5122446;28;20052;-80
2021/04/07 08:05:45;;;;;;;7.25;5.10;;;;;;;-143.98;100.00;68091.63;5116242;27;20142;-82
2021/04/07 08:08:11;;;;;;;8.18;5.60;;;;;;;-143.98;100.00;68091.63;5093954;28;20047;-81
2021/04/07 08:10:39;;;;;;;9.98;5.70;;;;;;;-143.98;100.00;68091.63;5110699;28;20060;-81
2021/04/07 08:13:09;;;;;;;6.80;4.65;;;;;;;-143.98;100.00;68091.63;5112250;28;20066;-81
2021/04/07 08:15:43;;;;;;;9.30;5.60;;;;;;;-143.98;100.00;68091.63;5112277;28;20052;-81
2021/04/07 08:18:11;;;;;;;8.43;5.40;;;;;;;-143.98;100.00;68091.63;5111834;28;20073;-81
2021/04/07 08:20:38;;;;;;;8.95;5.55;;;;;;;-143.98;100.00;68091.63;5111368;28;20056;-81
2021/04/07 08:23:09;;;;;;;10.00;5.95;;;;;;;-143.98;100.00;68091.63;5094144;28;20163;-81
2021/04/07 08:25:39;;;;;;;5.25;4.25;;;;;;;-143.98;100.00;68091.63;5095379;28;20076;-81
2021/04/07 08:28:06;;;;;;;7.13;3.95;;;;;;;-143.98;100.00;68091.63;5095541;28;20056;-81
2021/04/07 08:30:33;;;;;;;5.53;3.65;;;;;;;-143.98;100.00;68091.63;5096649;28;20259;-81
2021/04/07 08:33:02;;;;;;;6.35;3.53;;;;;;;-143.98;100.00;68091.63;5111282;28;20055;-82
2021/04/07 08:35:29;;;;;;;4.50;3.40;;;;;;;-143.98;100.00;68091.63;5092574;28;20043;-82
2021/04/07 08:38:00;;;;;;;4.47;2.17;;;;;;;-143.98;100.00;68091.63;5110781;28;20090;-82
2021/04/07 08:41:12;;;;;;;3.58;2.15;;;;;;;-143.98;100.00;68091.63;5122173;28;20042;-82
2021/04/07 08:43:39;;;;;;;3.22;2.47;;;;;;;-143.98;100.00;68091.63;5113360;28;20203;-83
2021/04/07 08:46:16;;;;;;;2.65;2.10;;;;;;;-143.98;100.00;68091.63;5126652;28;20120;-83
2021/04/07 08:48:43;;;;;;;3.03;1.90;;;;;;;-143.98;100.00;68091.63;5127863;28;20141;-83
2021/04/07 08:51:12;;;;;;;3.65;2.20;;;;;;;-143.98;100.00;68091.63;5109051;28;20035;-83
2021/04/07 08:53:45;;;;;;;3.47;1.90;;;;;;;-143.98;100.00;68091.63;5121635;28;20122;-81
2021/04/07 08:56:13;;;;;;;4.80;2.25;;;;;;;-143.98;100.00;68091.63;5100372;28;20051;-81
2021/04/07 08:58:59;;;;;;;2.42;1.80;;;;;;;-143.98;100.00;68091.63;5112840;28;20299;-82
2021/04/07 09:01:32;;;;;;;2.75;2.00;;;;;;;-143.98;100.00;68091.63;5116578;28;20236;-83
2021/04/07 09:04:12;;;;;;;3.75;1.98;;;;;;;-143.98;100.00;68091.63;5125042;28;20138;-83
2021/04/07 09:06:58;;;;;;;2.53;1.88;;;;;;;-143.98;100.00;68091.63;5117551;28;20047;-83
2021/04/07 09:09:39;;;;;;;2.58;1.40;;;;;;;-143.98;100.00;68091.63;5095596;28;20234;-83
2021/04/07 09:12:05;;;;;;;2.65;1.77;;;;;;;-143.98;100.00;68091.63;5109457;28;20496;-82
2021/04/07 09:14:34;;;;;;;2.45;1.88;;;;;;;-143.98;100.00;68091.63;5108513;28;20139;-82
2021/04/07 09:17:07;;;;;;;4.38;1.83;;;;;;;-143.98;100.00;68091.63;5107551;28;20091;-82
2021/04/07 09:19:36;;;;;;;3.08;1.88;;;;;;;-143.98;100.00;68091.63;5109826;28;20074;-82
2021/04/07 09:22:06;;;;;;;5.07;2.30;;;;;;;-143.98;100.00;68091.63;5110956;28;20169;-82
2021/04/07 09:24:46;;;;;;;5.05;1.73;;;;;;;-143.98;100.00;68091.63;5108797;28;20382;-82
2021/04/07 09:27:24;;;;;;;3.50;1.65;;;;;;;-143.98;100.00;68091.63;5093252;28;20258;-82
2021/04/07 09:30:01;;;;;;;2.08;1.40;;;;;;;-143.98;100.00;68091.63;5108257;28;20196;-82
2021/04/07 09:32:29;;;;;;;4.20;1.70;;;;;;;-143.98;100.00;68091.63;5108645;28;20118;-81
2021/04/07 09:35:25;;;;;;;1.30;1.20;;;;;;;-143.98;100.00;68091.63;5109522;28;20142;-81
2021/04/07 09:38:01;;;;;;;3.85;1.65;;;;;;;-143.98;100.00;68091.63;5091725;28;20047;-83
2021/04/07 09:40:34;;;;;;;2.83;1.27;;;;;;;-143.98;100.00;68091.63;5090523;28;20406;-83
2021/04/07 09:43:00;;;;;;;4.45;1.40;;;;;;;-143.98;100.00;68091.63;5111013;28;20043;-82
2021/04/07 09:45:30;;;;;;;8.48;1.75;;;;;;;-143.98;100.00;68091.63;5107182;28;20044;-83
2021/04/07 09:48:00;;;;;;;2.35;1.38;;;;;;;-143.98;100.00;68091.63;5091655;28;20305;-83
2021/04/07 09:50:33;;;;;;;3.05;1.50;;;;;;;-143.98;100.00;68091.63;5092807;28;20055;-82
2021/04/07 09:53:00;;;;;;;5.38;1.17;;;;;;;-143.98;100.00;68091.63;5109841;28;20306;-82
2021/04/07 09:55:30;;;;;;;2.35;1.30;;;;;;;-143.98;100.00;68091.63;5108654;28;20448;-82
2021/04/07 09:58:01;;;;;;;2.50;1.48;;;;;;;-143.98;100.00;68091.63;5116350;28;20162;-81
2021/04/07 10:00:36;;;;;;;5.70;1.25;;;;;;;-143.98;100.00;68091.63;5116891;28;20043;-82
2021/04/07 10:03:15;;;;;;;2.78;1.20;;;;;;;-143.98;100.00;68091.63;5095857;28;20074;-83
2021/04/07 10:05:41;;;;;;;2.10;1.20;;;;;;;-143.98;100.00;68091.63;5110627;28;20335;-82
2021/04/07 10:08:14;;;;;;;2.78;1.42;;;;;;;-143.98;100.00;68091.63;5111091;28;20052;-82
2021/04/07 10:10:41;;;;;;;4.28;1.30;;;;;;;-143.98;100.00;68091.63;5094979;28;20058;-82
2021/04/07 10:13:11;;;;;;;3.60;1.92;;;;;;;-143.98;100.00;68091.63;5113186;28;20055;-82
2021/04/07 10:15:38;;;;;;;6.80;1.48;;;;;;;-143.98;100.00;68091.63;5114143;28;20055;-82
2021/04/07 10:18:10;;;;;;;4.55;1.58;;;;;;;-143.98;100.00;68091.63;5114991;28;20370;-84
2021/04/07 10:20:45;;;;;;;3.53;1.25;;;;;;;-143.98;100.00;68091.63;5094572;28;20048;-83
2021/04/07 10:23:17;;;;;;;3.28;0.93;;;;;;;-143.98;100.00;68091.63;5108622;28;20268;-81
2021/04/07 10:25:46;;;;;;;6.40;1.33;;;;;;;-143.98;100.00;68091.63;5105401;28;20429;-83
2021/04/07 10:28:19;;;;;;;5.30;1.75;;;;;;;-143.98;100.00;68091.63;5091245;28;20060;-82
2021/04/07 10:30:45;;;;;;;6.55;1.63;;;;;;;-143.98;100.00;68091.63;5089651;28;20064;-81
2021/04/07 10:33:12;;;;;;;5.97;1.63;;;;;;;-143.98;100.00;68091.63;5112600;28;20228;-82
2021/04/07 10:35:39;;;;;;;5.00;1.70;;;;;;;-143.98;100.00;68091.63;5112611;28;20069;-81
2021/04/07 10:38:12;;;;;;;5.80;1.60;;;;;;;-143.98;100.00;68091.63;5091345;28;20065;-82
2021/04/07 10:40:40;;;;;;;3.95;1.73;;;;;;;-143.98;100.00;68091.63;5111699;28;20054;-82
2021/04/07 10:43:15;;;;;;;4.68;1.75;;;;;;;-143.98;100.00;68091.63;5097395;28;20238;-81
2021/04/07 10:45:44;;;;;;;9.45;2.08;;;;;;;-143.98;100.00;68091.63;5096276;28;20305;-82
2021/04/07 10:48:11;;;;;;;6.68;2.00;;;;;;;-143.98;100.00;68091.63;5112853;28;20052;-82
2021/04/07 10:50:40;;;;;;;4.25;2.30;;;;;;;-143.98;100.00;68091.63;5113415;28;20083;-82
2021/04/07 10:53:07;;;;;;;12.55;1.95;;;;;;;-143.98;100.00;68091.63;5116173;28;20052;-83
2021/04/07 10:55:36;;;;;;;5.07;1.95;;;;;;;-143.98;100.00;68091.63;5110787;28;20048;-84
2021/04/07 10:58:24;;;;;;;7.53;2.17;;;;;;;-143.98;100.00;68091.63;5099363;28;20211;-83
2021/04/07 11:00:53;;;;;;;6.22;2.45;;;;;;;-143.98;100.00;68091.63;5115757;28;20119;-83
2021/04/07 11:03:33;;;;;;;5.35;2.10;;;;;;;-143.98;100.00;68091.63;5120031;28;20075;-83
2021/04/07 11:06:00;;;;;;;7.82;2.28;;;;;;;-143.98;100.00;68091.63;5119896;28;20111;-83
2021/04/07 11:08:37;;;;;;;21.35;2.83;;;;;;;-143.98;100.00;68091.63;5105410;28;20058;-85
2021/04/07 11:11:05;;;;;;;5.88;1.98;;;;;;;-143.98;100.00;68091.63;5102316;28;20473;-86
2021/04/07 11:13:42;;;;;;;6.97;2.28;;;;;;;-143.98;100.00;68091.63;5123191;28;20067;-88
2021/04/07 11:16:19;;;;;;;9.93;2.83;;;;;;;-143.98;100.00;68091.63;5117860;28;20079;-87